createdAt,value
2019-01-18T00:01:54.411Z,99.90
2019-01-18T00:04:25.665Z,99.90
2019-01-18T00:06:57.002Z,99.90
2019-01-18T00:09:28.075Z,99.90
2019-01-18T00:11:59.258Z,99.90
2019-01-18T00:14:30.298Z,99.90
2019-01-18T00:17:01.534Z,99.90
2019-01-18T00:19:32.700Z,99.90
2019-01-18T00:22:04.064Z,99.90
2019-01-18T00:24:35.195Z,99.90
2019-01-18T00:27:06.560Z,99.90
2019-01-18T00:29:37.598Z,99.90
2019-01-18T00:32:08.815Z,99.90
2019-01-18T00:34:39.898Z,99.90
2019-01-18T00:37:11.360Z,99.90
2019-01-18T00:39:42.433Z,99.90
2019-01-18T00:42:13.658Z,99.90
2019-01-18T00:44:44.762Z,99.90
2019-01-18T00:47:15.944Z,99.90
2019-01-18T00:49:46.988Z,99.90
2019-01-18T00:52:18.316Z,99.90
2019-01-18T00:54:49.360Z,99.90
2019-01-18T00:57:20.712Z,99.90
2019-01-18T00:59:51.764Z,99.90
2019-01-18T01:02:23.121Z,99.90
2019-01-18T01:04:54.204Z,99.90
2019-01-18T01:07:25.486Z,99.90
2019-01-18T01:09:56.552Z,99.90
2019-01-18T01:12:28.102Z,99.90
2019-01-18T01:15:11.981Z,99.90
2019-01-18T01:17:43.565Z,99.90
2019-01-18T01:20:16.886Z,99.90
2019-01-18T01:22:48.335Z,99.90
2019-01-18T01:25:20.387Z,99.90
2019-01-18T01:27:51.760Z,99.90
2019-01-18T01:30:26.683Z,99.90
2019-01-18T01:32:58.656Z,99.90
2019-01-18T01:35:29.722Z,99.90
2019-01-18T01:38:01.092Z,99.90
2019-01-18T01:40:32.205Z,99.90
2019-01-18T01:43:03.631Z,99.90
2019-01-18T01:45:34.726Z,99.90
2019-01-18T01:48:06.128Z,99.90
2019-01-18T01:50:37.168Z,99.90
2019-01-18T01:53:08.365Z,99.90
2019-01-18T01:55:39.492Z,99.90
2019-01-18T01:58:10.713Z,99.90
2019-01-18T02:00:41.882Z,99.90
2019-01-18T02:03:13.204Z,99.90
2019-01-18T02:05:44.305Z,99.90
2019-01-18T02:08:15.440Z,99.90
2019-01-18T02:10:46.547Z,99.90
2019-01-18T02:13:17.884Z,99.90
2019-01-18T02:15:48.967Z,99.90
2019-01-18T02:18:20.272Z,99.90
2019-01-18T02:20:52.774Z,99.90
2019-01-18T02:23:24.063Z,99.90
2019-01-18T02:25:55.096Z,99.90
2019-01-18T02:28:26.520Z,99.90
2019-01-18T02:30:57.620Z,99.90
2019-01-18T02:33:28.904Z,99.90
2019-01-18T02:35:59.940Z,99.90
2019-01-18T02:38:31.278Z,99.90
2019-01-18T02:41:02.328Z,99.90
2019-01-18T02:43:33.698Z,99.90
2019-01-18T02:46:05.064Z,99.90
2019-01-18T02:48:36.370Z,99.90
2019-01-18T02:51:07.422Z,99.90
2019-01-18T02:53:38.880Z,99.90
2019-01-18T02:56:09.924Z,99.90
2019-01-18T02:58:53.325Z,99.90
2019-01-18T03:01:24.438Z,99.90
2019-01-18T03:03:55.745Z,99.90
2019-01-18T03:06:26.887Z,99.90
2019-01-18T03:08:58.230Z,99.90
2019-01-18T03:11:29.259Z,99.90
2019-01-18T03:14:00.669Z,99.90
2019-01-18T03:16:31.776Z,99.90
2019-01-18T03:19:03.092Z,99.90
2019-01-18T03:21:34.142Z,99.90
2019-01-18T03:24:05.504Z,99.90
2019-01-18T03:26:36.559Z,99.90
2019-01-18T03:29:07.894Z,99.90
2019-01-18T03:31:38.955Z,99.90
2019-01-18T03:34:10.212Z,99.90
2019-01-18T03:36:41.258Z,99.90
2019-01-18T03:39:12.486Z,99.90
2019-01-18T03:41:43.566Z,99.90
2019-01-18T03:44:14.888Z,99.90
2019-01-18T03:46:46.547Z,99.90
2019-01-18T03:49:17.868Z,99.90
2019-01-18T03:51:48.980Z,99.90
2019-01-18T03:54:20.464Z,99.90
2019-01-18T03:56:51.532Z,99.90
2019-01-18T03:59:23.122Z,99.90
2019-01-18T04:01:55.513Z,99.90
2019-01-18T04:04:27.801Z,99.90
2019-01-18T04:06:59.020Z,99.90
2019-01-18T04:09:30.310Z,99.90
2019-01-18T04:12:01.410Z,99.90
2019-01-18T04:14:32.852Z,99.90
2019-01-18T04:17:04.007Z,99.90
2019-01-18T04:19:35.442Z,99.90
2019-01-18T04:22:06.535Z,99.90
2019-01-18T04:24:37.901Z,99.90
2019-01-18T04:27:08.940Z,99.90
2019-01-18T04:29:40.387Z,99.90
2019-01-18T04:32:11.438Z,99.90
2019-01-18T04:34:42.876Z,99.90
2019-01-18T04:37:13.921Z,99.90
2019-01-18T04:39:45.370Z,99.90
2019-01-18T04:42:16.407Z,99.90
2019-01-18T04:44:47.760Z,99.90
2019-01-18T04:47:18.858Z,99.90
2019-01-18T04:49:50.456Z,99.90
2019-01-18T04:52:21.625Z,99.90
2019-01-18T04:54:52.924Z,99.90
2019-01-18T04:57:23.970Z,99.90
2019-01-18T04:59:55.346Z,99.90
2019-01-18T05:02:26.387Z,99.90
2019-01-18T05:04:57.635Z,99.90
2019-01-18T05:07:28.676Z,99.90
2019-01-18T05:10:00.029Z,99.90
2019-01-18T05:12:31.121Z,99.90
2019-01-18T05:15:02.468Z,99.90
2019-01-18T05:17:34.628Z,99.90
2019-01-18T05:20:06.452Z,99.90
2019-01-18T05:22:37.660Z,99.90
2019-01-18T05:25:10.301Z,99.90
2019-01-18T05:27:41.417Z,99.90
2019-01-18T05:30:16.352Z,99.90
2019-01-18T05:32:47.522Z,99.90
2019-01-18T05:35:19.456Z,99.90
2019-01-18T05:37:50.530Z,99.90
2019-01-18T05:40:22.172Z,99.90
2019-01-18T05:42:53.233Z,99.90
2019-01-18T05:45:24.581Z,99.90
2019-01-18T05:47:55.943Z,99.90
2019-01-18T05:50:30.950Z,99.90
2019-01-18T05:53:05.607Z,99.90
2019-01-18T05:55:36.774Z,99.90
2019-01-18T05:58:07.912Z,99.90
2019-01-18T06:00:45.459Z,99.90
2019-01-18T06:03:16.560Z,99.90
2019-01-18T06:05:47.900Z,99.90
2019-01-18T06:08:18.987Z,99.90
2019-01-18T06:10:50.338Z,99.90
2019-01-18T06:13:21.572Z,99.90
2019-01-18T06:15:52.937Z,99.90
2019-01-18T06:18:24.098Z,99.90
2019-01-18T06:20:55.367Z,99.90
2019-01-18T06:23:26.446Z,99.90
2019-01-18T06:25:57.859Z,99.90
2019-01-18T06:28:29.014Z,99.90
2019-01-18T06:31:01.886Z,99.90
2019-01-18T06:33:33.201Z,99.90
2019-01-18T06:36:04.860Z,99.90
2019-01-18T06:38:35.946Z,99.90
2019-01-18T06:41:18.204Z,99.90
2019-01-18T06:43:49.455Z,99.90
2019-01-18T06:46:39.951Z,99.90
2019-01-18T06:49:12.130Z,99.90
2019-01-18T06:51:43.292Z,99.90
2019-01-18T06:54:14.367Z,99.90
2019-01-18T06:56:45.976Z,99.90
2019-01-18T06:59:17.097Z,99.90
2019-01-18T07:01:48.703Z,99.90
2019-01-18T07:04:19.814Z,99.90
2019-01-18T07:06:50.989Z,99.90
2019-01-18T07:09:22.120Z,99.90
2019-01-18T07:11:53.544Z,99.90
2019-01-18T07:14:24.638Z,99.90
2019-01-18T07:16:56.040Z,99.90
2019-01-18T07:19:27.079Z,99.90
2019-01-18T07:21:58.376Z,99.90
2019-01-18T07:24:29.448Z,99.90
2019-01-18T07:27:00.816Z,99.90
2019-01-18T07:29:31.864Z,99.90
2019-01-18T07:32:03.220Z,99.90
2019-01-18T07:34:34.303Z,99.90
2019-01-18T07:37:05.596Z,99.90
2019-01-18T07:39:36.658Z,99.90
2019-01-18T07:42:07.974Z,99.90
2019-01-18T07:44:39.037Z,99.90
2019-01-18T07:47:10.227Z,99.90
2019-01-18T07:49:41.297Z,99.90
2019-01-18T07:52:12.583Z,99.90
2019-01-18T07:54:43.692Z,99.90
2019-01-18T07:57:15.440Z,99.90
2019-01-18T07:59:46.650Z,99.90
2019-01-18T08:02:17.990Z,99.90
2019-01-18T08:04:49.143Z,99.90
2019-01-18T08:07:20.572Z,99.90
2019-01-18T08:09:51.704Z,99.90
2019-01-18T08:12:22.916Z,99.90
2019-01-18T08:14:54.008Z,99.90
2019-01-18T08:17:25.240Z,99.90
2019-01-18T08:19:56.352Z,99.90
2019-01-18T08:22:27.530Z,99.90
2019-01-18T08:24:59.556Z,99.90
2019-01-18T08:27:30.736Z,99.90
2019-01-18T08:30:01.858Z,99.90
2019-01-18T08:32:34.202Z,99.90
2019-01-18T08:35:05.914Z,99.90
2019-01-18T08:37:37.120Z,99.90
2019-01-18T08:40:10.614Z,99.90
2019-01-18T08:42:41.892Z,99.90
2019-01-18T08:45:16.938Z,99.90
2019-01-18T08:47:48.120Z,99.90
2019-01-18T08:50:19.341Z,99.90
2019-01-18T08:52:50.621Z,99.90
2019-01-18T08:55:21.680Z,99.90
2019-01-18T08:57:53.101Z,99.90
2019-01-18T09:00:25.430Z,99.90
2019-01-18T09:02:56.755Z,99.90
2019-01-18T09:05:46.914Z,99.90
2019-01-18T09:08:18.153Z,99.90
2019-01-18T09:10:49.302Z,99.90
2019-01-18T09:13:20.652Z,99.90
2019-01-18T09:15:51.730Z,99.90
2019-01-18T09:18:23.155Z,99.90
2019-01-18T09:20:54.412Z,99.90
2019-01-18T09:23:25.619Z,99.90
2019-01-18T09:25:56.822Z,99.90
2019-01-18T09:28:28.052Z,99.90
2019-01-18T09:30:59.134Z,99.90
2019-01-18T09:33:30.461Z,99.90
2019-01-18T09:36:01.669Z,99.90
2019-01-18T09:38:33.028Z,99.90
2019-01-18T09:41:04.189Z,99.90
2019-01-18T09:43:35.622Z,99.90
2019-01-18T09:46:06.711Z,99.90
2019-01-18T09:48:37.931Z,99.90
2019-01-18T09:51:08.997Z,99.90
2019-01-18T09:53:40.396Z,99.90
2019-01-18T09:56:11.440Z,99.90
2019-01-18T09:58:42.788Z,99.90
2019-01-18T10:01:13.836Z,99.90
2019-01-18T10:03:45.295Z,99.90
2019-01-18T10:06:27.892Z,99.90
2019-01-18T10:08:59.490Z,99.90
2019-01-18T10:11:30.616Z,99.90
2019-01-18T10:14:01.951Z,99.90
2019-01-18T10:16:33.036Z,99.90
2019-01-18T10:19:04.540Z,99.90
2019-01-18T10:21:35.672Z,99.90
2019-01-18T10:24:07.032Z,99.90
2019-01-18T10:26:38.095Z,99.90
2019-01-18T10:29:09.420Z,99.90
2019-01-18T10:31:40.471Z,99.90
2019-01-18T10:34:12.432Z,99.90
2019-01-18T10:36:43.485Z,99.90
2019-01-18T10:39:14.928Z,99.90
2019-01-18T10:41:46.079Z,99.90
2019-01-18T10:44:17.532Z,99.90
2019-01-18T10:46:48.596Z,99.90
2019-01-18T10:49:19.772Z,99.90
2019-01-18T10:51:51.129Z,99.90
2019-01-18T10:54:22.520Z,99.90
2019-01-18T10:56:53.610Z,99.90
2019-01-18T10:59:25.308Z,99.90
2019-01-18T11:02:03.331Z,99.90
2019-01-18T11:04:29.277Z,99.90
2019-01-18T11:07:00.341Z,99.90
2019-01-18T11:09:31.599Z,99.90
2019-01-18T11:12:05.727Z,99.90
2019-01-18T11:14:37.094Z,99.90
2019-01-18T11:17:08.144Z,99.90
2019-01-18T11:19:39.567Z,99.90
2019-01-18T11:22:10.704Z,99.60
2019-01-18T11:24:42.080Z,98.90
2019-01-18T11:27:13.202Z,95.90
2019-01-18T11:29:44.648Z,95.70
2019-01-18T11:32:15.780Z,95.60
2019-01-18T11:34:47.016Z,97.40
2019-01-18T11:37:18.136Z,93.10
2019-01-18T11:39:49.613Z,96.20
2019-01-18T11:42:20.674Z,96.90
2019-01-18T11:44:51.862Z,93.30
2019-01-18T11:47:22.948Z,85.20
2019-01-18T11:49:54.246Z,82.30
2019-01-18T11:52:25.322Z,77.20
2019-01-18T11:54:56.527Z,77.80
2019-01-18T11:57:27.572Z,69.20
2019-01-18T11:59:58.976Z,75.10
2019-01-18T12:02:30.011Z,74.70
2019-01-18T12:05:01.286Z,72.90
2019-01-18T12:07:32.316Z,76.60
2019-01-18T12:10:03.818Z,80.80
2019-01-18T12:12:35.031Z,89.80
2019-01-18T12:15:07.066Z,91.60
2019-01-18T12:17:38.130Z,86.10
2019-01-18T12:20:12.598Z,80.50
2019-01-18T12:22:44.715Z,85.90
2019-01-18T12:25:16.094Z,90.50
2019-01-18T12:27:47.362Z,90.30
2019-01-18T12:30:25.006Z,90.90
2019-01-18T12:32:56.090Z,76.90
2019-01-18T12:35:27.580Z,68.30
2019-01-18T12:37:59.072Z,69.60
2019-01-18T12:40:30.267Z,75.00
2019-01-18T12:43:01.324Z,72.50
2019-01-18T12:45:32.581Z,75.40
2019-01-18T12:48:03.703Z,75.60
2019-01-18T12:50:37.536Z,62.20
2019-01-18T12:53:08.982Z,61.50
2019-01-18T12:55:40.398Z,58.70
2019-01-18T12:58:11.483Z,56.20
2019-01-18T13:00:42.744Z,54.80
2019-01-18T13:03:13.795Z,56.90
2019-01-18T13:05:47.592Z,59.30
2019-01-18T13:08:18.671Z,59.60
2019-01-18T13:10:52.913Z,62.70
2019-01-18T13:13:24.096Z,65.40
2019-01-18T13:16:48.294Z,64.70
2019-01-18T13:19:24.480Z,67.60
2019-01-18T13:21:55.832Z,69.30
2019-01-18T13:24:27.092Z,69.30
2019-01-18T13:26:58.352Z,61.50
2019-01-18T13:29:29.425Z,59.30
2019-01-18T13:32:00.606Z,59.00
2019-01-18T13:34:31.693Z,60.60
2019-01-18T13:37:02.928Z,61.70
2019-01-18T13:39:34.056Z,64.90
2019-01-18T13:42:05.512Z,68.70
2019-01-18T13:44:43.413Z,65.10
2019-01-18T13:47:11.098Z,64.90
2019-01-18T13:49:43.274Z,67.70
2019-01-18T13:52:14.594Z,67.70
2019-01-18T13:54:45.719Z,66.80
2019-01-18T13:57:17.086Z,66.50
2019-01-18T13:59:48.172Z,63.00
2019-01-18T14:02:19.332Z,64.00
2019-01-18T14:04:50.372Z,66.20
2019-01-18T14:07:21.544Z,71.00
2019-01-18T14:09:52.772Z,70.30
2019-01-18T14:12:24.464Z,71.40
2019-01-18T14:14:55.975Z,66.00
2019-01-18T14:17:27.373Z,60.50
2019-01-18T14:19:58.462Z,58.40
2019-01-18T14:22:29.962Z,57.90
2019-01-18T14:25:01.049Z,57.20
2019-01-18T14:27:32.267Z,56.20
2019-01-18T14:30:04.141Z,55.60
2019-01-18T14:32:35.468Z,55.70
2019-01-18T14:35:07.226Z,54.60
2019-01-18T14:37:38.888Z,56.70
2019-01-18T14:40:11.158Z,57.20
2019-01-18T14:42:42.538Z,58.00
2019-01-18T14:45:16.786Z,61.20
2019-01-18T14:47:48.910Z,64.10
2019-01-18T14:50:20.682Z,66.00
2019-01-18T14:52:52.103Z,68.60
2019-01-18T14:55:23.350Z,68.90
2019-01-18T14:57:54.608Z,69.70
2019-01-18T15:00:32.804Z,68.90
2019-01-18T15:03:04.651Z,68.40
2019-01-18T15:05:35.912Z,69.60
2019-01-18T15:08:08.588Z,68.90
2019-01-18T15:10:39.874Z,69.90
2019-01-18T15:13:14.064Z,72.50
2019-01-18T15:15:45.212Z,75.30
2019-01-18T15:18:17.372Z,79.40
2019-01-18T15:20:48.412Z,84.30
2019-01-18T15:23:19.674Z,88.70
2019-01-18T15:25:50.724Z,90.80
2019-01-18T15:28:22.156Z,92.10
2019-01-18T15:30:53.291Z,94.10
2019-01-18T15:33:24.653Z,94.70
2019-01-18T15:35:55.849Z,95.20
2019-01-18T15:38:27.141Z,96.20
2019-01-18T15:40:58.524Z,96.60
2019-01-18T15:43:29.948Z,98.00
2019-01-18T15:46:01.004Z,98.30
2019-01-18T15:48:32.384Z,99.70
2019-01-18T15:51:03.591Z,99.90
2019-01-18T15:53:34.873Z,99.90
2019-01-18T15:56:06.118Z,99.90
2019-01-18T15:58:37.532Z,99.90
2019-01-18T16:01:08.653Z,99.90
2019-01-18T16:10:46.739Z,99.90
2019-01-18T16:13:17.806Z,99.90
2019-01-18T16:15:59.577Z,99.90
2019-01-18T16:18:30.620Z,99.90
2019-01-18T16:21:02.678Z,99.90
2019-01-18T16:23:34.018Z,99.90
2019-01-18T16:26:05.759Z,99.90
2019-01-18T16:28:36.896Z,99.90
2019-01-18T16:31:08.494Z,99.90
2019-01-18T16:33:40.600Z,99.90
2019-01-18T16:36:11.798Z,99.90
2019-01-18T16:38:54.076Z,99.90
2019-01-18T16:41:25.875Z,99.90
2019-01-18T16:43:56.968Z,99.90
2019-01-18T16:46:28.362Z,99.90
2019-01-18T16:48:59.392Z,99.90
2019-01-18T16:51:30.791Z,99.90
2019-01-18T16:54:01.899Z,99.90
2019-01-18T16:56:33.453Z,99.90
2019-01-18T16:59:04.605Z,99.90
2019-01-18T17:01:35.970Z,99.90
2019-01-18T17:04:07.031Z,99.90
2019-01-18T17:06:38.334Z,99.90
2019-01-18T17:09:09.742Z,99.90
2019-01-18T17:11:41.337Z,99.90
2019-01-18T17:14:12.434Z,99.90
2019-01-18T17:16:45.008Z,99.90
2019-01-18T17:19:16.226Z,99.90
2019-01-18T17:21:47.571Z,99.90
2019-01-18T17:24:18.652Z,99.90
2019-01-18T17:26:50.016Z,99.90
2019-01-18T17:29:21.123Z,99.90
2019-01-18T17:31:52.547Z,99.90
2019-01-18T17:34:23.598Z,99.90
2019-01-18T17:37:16.179Z,99.90
2019-01-18T17:40:14.206Z,99.90
2019-01-18T17:43:28.676Z,99.90
2019-01-18T17:46:10.946Z,99.90
2019-01-18T17:49:27.175Z,99.90
2019-01-18T17:52:51.376Z,99.90
2019-01-18T17:56:12.578Z,99.90
2019-01-18T17:59:13.819Z,99.90
2019-01-18T18:02:26.154Z,99.90
2019-01-18T18:05:24.893Z,99.90
2019-01-18T18:08:22.170Z,99.90
2019-01-18T18:11:52.642Z,99.90
2019-01-18T18:15:08.118Z,99.90
2019-01-18T18:18:41.627Z,99.90
2019-01-18T18:21:41.008Z,99.90
2019-01-18T18:24:37.288Z,99.90
2019-01-18T18:27:58.854Z,99.90
2019-01-18T18:31:01.802Z,99.90
2019-01-18T18:34:17.478Z,99.90
2019-01-18T18:37:25.375Z,99.90
2019-01-18T18:40:27.266Z,99.90
2019-01-18T18:43:42.008Z,99.90
2019-01-18T18:46:33.539Z,99.90
2019-01-18T18:49:33.478Z,99.90
2019-01-18T18:52:48.121Z,99.90
2019-01-18T18:55:55.698Z,99.90
2019-01-18T18:59:13.314Z,99.90
2019-01-18T19:01:57.848Z,99.90
2019-01-18T19:05:28.556Z,99.90
2019-01-18T19:08:10.101Z,99.90
2019-01-18T19:11:31.988Z,99.90
2019-01-18T19:14:26.634Z,99.90
2019-01-18T19:17:33.887Z,99.90
2019-01-18T19:20:35.406Z,99.90
2019-01-18T19:23:35.042Z,99.90
2019-01-18T19:27:01.149Z,99.90
2019-01-18T19:29:52.470Z,99.90
2019-01-18T19:32:50.000Z,99.90
2019-01-18T19:36:12.908Z,99.90
2019-01-18T19:39:34.400Z,99.90
2019-01-18T19:42:30.370Z,99.90
2019-01-18T19:45:30.460Z,99.90
2019-01-18T19:48:36.526Z,99.90
2019-01-18T19:51:35.456Z,99.90
2019-01-18T19:54:20.965Z,99.90
2019-01-18T19:57:07.184Z,99.90
2019-01-18T20:00:18.094Z,99.90
2019-01-18T20:03:39.888Z,99.90
2019-01-18T20:07:02.238Z,99.90
2019-01-18T20:10:00.364Z,99.90
2019-01-18T20:13:23.502Z,99.90
2019-01-18T20:16:02.487Z,99.90
2019-01-18T20:19:23.877Z,99.90
2019-01-18T20:22:23.592Z,99.90
2019-01-18T20:25:35.384Z,99.90
2019-01-18T20:29:05.924Z,99.90
2019-01-18T20:32:29.192Z,99.90
2019-01-18T20:35:37.012Z,99.90
2019-01-18T20:38:52.207Z,99.90
2019-01-18T20:42:13.040Z,99.90
2019-01-18T20:45:08.902Z,99.90
2019-01-18T20:47:59.368Z,99.90
2019-01-18T20:51:02.412Z,99.90
2019-01-18T20:54:13.612Z,99.90
2019-01-18T20:57:16.736Z,99.90
2019-01-18T21:00:19.084Z,99.90
2019-01-18T21:03:37.224Z,99.90
2019-01-18T21:07:00.960Z,99.90
2019-01-18T21:10:16.365Z,99.90
2019-01-18T21:13:17.714Z,99.90
2019-01-18T21:16:33.198Z,99.90
2019-01-18T21:19:57.320Z,99.90
2019-01-18T21:23:18.708Z,99.90
2019-01-18T21:26:21.486Z,99.90
2019-01-18T21:29:31.347Z,99.90
2019-01-18T21:32:33.864Z,99.90
2019-01-18T21:35:46.578Z,99.90
2019-01-18T21:39:04.518Z,99.90
2019-01-18T21:42:01.028Z,99.90
2019-01-18T21:45:07.851Z,99.90
2019-01-18T21:48:13.678Z,99.90
2019-01-18T21:51:09.022Z,99.90
2019-01-18T21:53:55.594Z,99.90
2019-01-18T21:56:56.594Z,99.90
2019-01-18T22:00:08.024Z,99.90
2019-01-18T22:03:29.372Z,99.90
2019-01-18T22:06:21.325Z,99.90
2019-01-18T22:09:17.624Z,99.90
2019-01-18T22:12:39.315Z,99.90
2019-01-18T22:16:03.369Z,99.90
2019-01-18T22:19:36.528Z,99.90
2019-01-18T22:22:34.278Z,99.90
2019-01-18T22:25:46.839Z,99.90
2019-01-18T22:29:06.279Z,99.90
2019-01-18T22:32:21.783Z,99.90
2019-01-18T22:35:15.254Z,99.90
2019-01-18T22:37:59.759Z,99.90
2019-01-18T22:41:17.687Z,99.90
2019-01-18T22:44:23.706Z,99.90
2019-01-18T22:47:31.620Z,99.90
2019-01-18T22:50:31.941Z,99.90
2019-01-18T22:53:26.282Z,99.90
2019-01-18T22:56:33.624Z,99.90
2019-01-18T22:59:36.508Z,99.90
2019-01-18T23:02:50.608Z,99.90
2019-01-18T23:05:47.879Z,99.90
2019-01-18T23:08:55.975Z,99.90
2019-01-18T23:11:43.001Z,99.90
2019-01-18T23:14:49.214Z,99.90
2019-01-18T23:17:31.557Z,99.90
2019-01-18T23:21:04.545Z,99.90
2019-01-18T23:23:54.835Z,99.90
2019-01-18T23:26:58.316Z,99.90
2019-01-18T23:29:41.110Z,99.90
2019-01-18T23:32:50.370Z,99.90
2019-01-18T23:35:48.961Z,99.90
2019-01-18T23:39:13.461Z,99.90
2019-01-18T23:42:09.894Z,99.90
2019-01-18T23:45:18.221Z,99.90
2019-01-18T23:48:21.186Z,99.90
2019-01-18T23:51:42.221Z,99.90
2019-01-18T23:54:43.678Z,99.90
2019-01-18T23:57:54.552Z,99.90
